Flight Track Log - Related Links

Times and Time Zones

All times are in EDT time to prevent confusion due to time zone crossing. See the AFR3872 flight status page for this flight to view local times or setup timezone preferences in your user account.

Time Position Orientation Groundspeed Altitude Reporting Facility
EDT Latitude Longitude Course Direction KTS MPH feet Rate Location/Type
Tue 10:50:05 AM 48.9963 2.5643 264° West 169 194 200  Level FlightAware ADS-B
Tue 10:50:20 AM 48.9956 2.5480 266° West 159 183 800 2,609 Climbing FlightAware ADS-B
Tue 10:50:28 AM 48.9953 2.5393 267° West 158 182 1,200 2,400 Climbing FlightAware ADS-B
Tue 10:50:45 AM 48.9947 2.5194 267° West 164 189 1,800 2,077 Climbing FlightAware ADS-B
Tue 10:50:54 AM 48.9944 2.5092 267° West 166 191 2,100 1,636 Climbing FlightAware ADS-B
Tue 10:51:07 AM 48.9936 2.4933 266° West 168 193 2,400 1,429 Climbing FlightAware ADS-B
Tue 10:51:15 AM 48.9931 2.4843 265° West 169 194 2,600 1,200 Climbing FlightAware ADS-B
Tue 10:51:22 AM 48.9925 2.4760 264° West 171 197 2,700 1,667 Climbing FlightAware ADS-B
Tue 10:51:33 AM 48.9915 2.4625 264° West 167 192 3,100 1,333 Climbing FlightAware ADS-B
Tue 10:51:49 AM 48.9905 2.4446 265° West 175 201 3,300 720 Climbing FlightAware ADS-B
Tue 10:51:58 AM 48.9899 2.4326 266° West 186 214 3,400 706 Climbing FlightAware ADS-B
Tue 10:52:06 AM 48.9894 2.4216 266° West 196 226 3,500 783 Climbing FlightAware ADS-B
Tue 10:52:21 AM 48.9884 2.3995 266° West 214 246 3,700 828 Climbing FlightAware ADS-B
Tue 10:52:35 AM 48.9874 2.3783 266° West 236 272 3,900 1,286 Climbing FlightAware ADS-B
Tue 10:52:49 AM 48.9862 2.3542 266° West 247 284 4,300 1,750 Climbing FlightAware ADS-B
Tue 10:52:59 AM 48.9852 2.3372 265° West 253 291 4,600 2,308 Climbing FlightAware ADS-B
Tue 10:53:02 AM 48.9842 2.3305 257° West 257 296 4,800 3,000 Climbing FlightAware ADS-B
Tue 10:53:07 AM 48.9825 2.3233 250° West 259 298 5,000 2,000 Climbing FlightAware ADS-B
Tue 10:53:11 AM 48.9803 2.3165 244° Southwest 264 304 5,100 2,000 Climbing FlightAware ADS-B
Tue 10:53:16 AM 48.9771 2.3084 239° Southwest 268 308 5,300 2,400 Climbing FlightAware ADS-B
Tue 10:53:21 AM 48.9737 2.3005 236° Southwest 271 312 5,500 3,000 Climbing FlightAware ADS-B
Tue 10:53:26 AM 48.9698 2.2923 234° Southwest 271 312 5,800 3,000 Climbing FlightAware ADS-B
Tue 10:53:41 AM 48.9588 2.2682 235° Southwest 273 314 6,500 2,516 Climbing FlightAware ADS-B
Tue 10:53:57 AM 48.9480 2.2439 236° Southwest 276 318 7,100 2,483 Climbing FlightAware ADS-B
Tue 10:54:10 AM 48.9389 2.2229 237° Southwest 279 321 7,700 2,667 Climbing FlightAware ADS-B
Tue 10:54:15 AM 48.9346 2.2147 231° Southwest 282 325 7,900 2,000 Climbing FlightAware ADS-B
Tue 10:54:19 AM 48.9303 2.2086 223° Southwest 286 329 8,000 2,250 Climbing FlightAware ADS-B
Tue 10:54:23 AM 48.9260 2.2041 215° Southwest 290 334 8,200 2,400 Climbing FlightAware ADS-B
Tue 10:54:29 AM 48.9189 2.1983 208° Southwest 294 338 8,400 2,182 Climbing FlightAware ADS-B
Tue 10:54:34 AM 48.9133 2.1950 201° Southwest 296 341 8,600 2,526 Climbing FlightAware ADS-B
Tue 10:54:48 AM 48.8941 2.1871 195° South 299 344 9,200 2,750 Climbing FlightAware ADS-B
Tue 10:54:58 AM 48.8800 2.1825 192° South 301 346 9,700 2,364 Climbing FlightAware ADS-B
Tue 10:55:21 AM 48.8493 2.1739 190° South 309 356 10,500 1,565 Climbing FlightAware ADS-B
Tue 10:55:44 AM 48.8154 2.1644 190° South 334 384 10,900 1,585 Climbing FlightAware ADS-B
Tue 10:56:14 AM 48.7684 2.1502 191° South 349 402 11,900 2,000 Climbing FlightAware ADS-B
Tue 10:56:44 AM 48.7195 2.1349 192° South 362 417 12,900 737 Climbing FlightAware ADS-B
Tue 10:57:11 AM 48.6774 2.1264 192° South 346 398 12,600 2,512 Descending FlightAware UK
Tue 10:57:27 AM 48.6492 2.1129 192° South 365 420 14,700 4,174 Climbing FlightAware ADS-B
Tue 10:57:57 AM 48.6000 2.0980 191° South 372 428 15,800 97 Climbing FlightAware ADS-B
Tue 10:58:29 AM 48.5452 2.0782 191° South 382 440 14,800 857 Descending FlightAware UK
Tue 10:58:32 AM 48.5420 2.0740 191° South 400 460 16,300 3,488 Climbing FlightAware ADS-B
Tue 10:59:12 AM 48.4740 2.0470 195° South 417 480 17,300 1,950 Climbing FlightAware ADS-B
Tue 10:59:52 AM 48.3910 2.0130 195° South 425 489 18,900 1,933 Climbing FlightAware ADS-B
Tue 11:00:42 AM 48.3020 1.9770 195° South 435 501 20,200 1,579 Climbing FlightAware ADS-B
Tue 11:01:27 AM 48.2140 1.9420 195° South 448 516 21,400 1,624 Climbing FlightAware ADS-B
Tue 11:02:07 AM 48.1300 1.9080 195° South 447 514 22,500 1,500 Climbing FlightAware ADS-B
Tue 11:02:47 AM 48.0580 1.8800 195° South 462 532 23,400 1,440 Climbing FlightAware ADS-B
Tue 11:03:47 AM 47.9250 1.8270 195° South 467 537 24,900 1,380 Climbing FlightAware ADS-B
Tue 11:04:27 AM 47.8370 1.7920 195° South 483 556 25,700 1,129 Climbing FlightAware ADS-B
Tue 11:05:12 AM 47.7580 1.7610 195° South 479 551 26,500 1,482 Climbing FlightAware ADS-B
Tue 11:05:52 AM 47.6610 1.7230 195° South 483 556 27,800 1,271 Climbing FlightAware ADS-B
Tue 11:06:37 AM 47.5610 1.6840 195° South 498 573 28,300 720 Climbing FlightAware ADS-B
Tue 11:07:07 AM 47.4920 1.6570 195° South 496 571 28,700 825 Climbing FlightAware ADS-B
Tue 11:07:57 AM 47.3860 1.6160 195° South 513 590 29,400 947 Climbing FlightAware ADS-B
Tue 11:08:42 AM 47.2720 1.5710 195° South 515 593 30,200 1,050 Climbing FlightAware ADS-B
Tue 11:09:17 AM 47.1890 1.5400 194° South 513 590 30,800 988 Climbing FlightAware ADS-B
Tue 11:10:07 AM 47.0900 1.5020 195° South 518 596 31,600 1,133 Climbing FlightAware ADS-B
Tue 11:10:47 AM 46.9750 1.4580 195° South 517 595 32,500 1,040 Climbing FlightAware ADS-B
Tue 11:11:22 AM 46.9010 1.4300 194° South 518 596 32,900 400 Climbing FlightAware ADS-B
Tue 11:12:02 AM 46.8160 1.3960 195° South 517 595 33,000 63 Climbing FlightAware ADS-B
Tue 11:12:57 AM 46.7010 1.3180 205° Southwest 505 581 33,000  Level FlightAware ADS-B
Tue 11:13:47 AM 46.5770 1.2270 207° Southwest 512 589 33,000  Level FlightAware ADS-B
Tue 11:14:32 AM 46.5000 1.1690 207° Southwest 504 580 33,000  Level FlightAware ADS-B
Tue 11:15:02 AM 46.4220 1.1110 207° Southwest 511 588 33,000  Level FlightAware ADS-B
Tue 11:15:47 AM 46.3380 1.0490 207° Southwest 511 588 33,000  Level FlightAware ADS-B
Tue 11:16:37 AM 46.2320 0.9690 208° Southwest 506 582 33,000  Level FlightAware ADS-B
Tue 11:17:17 AM 46.1480 0.9070 207° Southwest 506 582 33,000  Level FlightAware ADS-B
Tue 11:18:02 AM 46.0640 0.8450 207° Southwest 508 585 33,000  Level FlightAware ADS-B
Tue 11:18:42 AM 45.9930 0.7930 207° Southwest 508 585 33,000  Level FlightAware ADS-B
Tue 11:19:17 AM 45.9070 0.7290 207° Southwest 506 582 33,000  Level FlightAware ADS-B
Tue 11:20:02 AM 45.7900 0.6430 207° Southwest 507 583 33,000  Level FlightAware ADS-B
Tue 11:20:47 AM 45.6940 0.5730 207° Southwest 507 583 33,000  Level FlightAware ADS-B
Tue 11:21:32 AM 45.5980 0.5030 207° Southwest 507 583 33,000  Level FlightAware ADS-B
Tue 11:22:12 AM 45.5140 0.4420 207° Southwest 506 582 33,000  Level FlightAware ADS-B
Tue 11:22:52 AM 45.4290 0.3810 207° Southwest 507 583 33,000  Level FlightAware ADS-B
Tue 11:23:37 AM 45.3330 0.3120 207° Southwest 509 586 33,000  Level FlightAware ADS-B
Tue 11:24:17 AM 45.2470 0.2510 207° Southwest 510 587 33,000  Level FlightAware ADS-B
Tue 11:25:02 AM 45.1520 0.1830 207° Southwest 510 587 33,000  Level FlightAware ADS-B
Tue 11:25:42 AM 45.0670 0.1220 207° Southwest 510 587 33,000  Level FlightAware ADS-B
Tue 11:26:27 AM 44.9700 0.0530 207° Southwest 509 586 33,000  Level FlightAware ADS-B
Tue 11:27:07 AM 44.8860 -0.0080 207° Southwest 507 583 33,000  Level FlightAware ADS-B
Tue 11:27:47 AM 44.8040 -0.0760 210° Southwest 507 583 33,000  Level FlightAware ADS-B
Tue 11:28:32 AM 44.7110 -0.1520 210° Southwest 506 582 33,000  Level FlightAware ADS-B
Tue 11:29:12 AM 44.6290 -0.2190 210° Southwest 508 585 33,000  Level FlightAware ADS-B
Tue 11:29:52 AM 44.5460 -0.2860 210° Southwest 516 594 33,000  Level FlightAware ADS-B
Tue 11:30:37 AM 44.4540 -0.3600 210° Southwest 517 595 33,000  Level FlightAware ADS-B
Tue 11:31:17 AM 44.3710 -0.4270 210° Southwest 517 595 33,000  Level FlightAware ADS-B
Tue 11:32:02 AM 44.2790 -0.5010 210° Southwest 515 593 33,000  Level FlightAware ADS-B
Tue 11:32:42 AM 44.1950 -0.5680 210° Southwest 516 594 33,000  Level FlightAware ADS-B
Tue 11:33:22 AM 44.1120 -0.6340 210° Southwest 516 594 33,000  Level FlightAware ADS-B
Tue 11:34:07 AM 44.0210 -0.7060 210° Southwest 516 594 33,000  Level FlightAware ADS-B
Tue 11:34:47 AM 43.9360 -0.7730 210° Southwest 515 593 33,000  Level FlightAware ADS-B
Tue 11:35:32 AM 43.8440 -0.8460 210° Southwest 515 593 33,000  Level FlightAware ADS-B
Tue 11:36:12 AM 43.7610 -0.9110 209° Southwest 515 593 33,000  Level FlightAware ADS-B
Tue 11:36:57 AM 43.6670 -0.9850 210° Southwest 515 593 33,000  Level FlightAware ADS-B
Tue 11:37:37 AM 43.5910 -1.0440 209° Southwest 516 594 33,000  Level FlightAware ADS-B
Tue 11:38:17 AM 43.5040 -1.1120 210° Southwest 517 595 33,000  Level FlightAware ADS-B
Tue 11:39:02 AM 43.4070 -1.1880 210° Southwest 518 596 33,000  Level FlightAware ADS-B
Tue 11:39:42 AM 43.3220 -1.2530 209° Southwest 518 596 33,000  Level FlightAware ADS-B
Tue 11:40:27 AM 43.2270 -1.3260 209° Southwest 518 596 33,000  Level FlightAware ADS-B
Tue 11:41:07 AM 43.1440 -1.3900 209° Southwest 518 596 33,000  Level FlightAware ADS-B
Tue 11:41:47 AM 43.0650 -1.4510 209° Southwest 517 595 33,000  Level FlightAware ADS-B
Tue 11:42:32 AM 42.9680 -1.5240 209° Southwest 517 595 33,000  Level FlightAware ADS-B
Tue 11:43:12 AM 42.8840 -1.5880 209° Southwest 517 595 33,000  Level FlightAware ADS-B
Tue 11:43:57 AM 42.7940 -1.6560 209° Southwest 517 595 33,000  Level FlightAware ADS-B
Tue 11:44:37 AM 42.7050 -1.7210 208° Southwest 514 592 33,000  Level FlightAware ADS-B
Tue 11:45:17 AM 42.6230 -1.7760 206° Southwest 513 590 33,000  Level FlightAware ADS-B
Tue 11:46:02 AM 42.5280 -1.8400 206° Southwest 514 592 33,000  Level FlightAware ADS-B
Tue 11:46:42 AM 42.4410 -1.8980 206° Southwest 516 594 33,000  Level FlightAware ADS-B
Tue 11:47:27 AM 42.3440 -1.9630 206° Southwest 517 595 33,000  Level FlightAware ADS-B
Tue 11:48:07 AM 42.2580 -2.0200 206° Southwest 518 596 33,000  Level FlightAware ADS-B
Tue 11:48:47 AM 42.1700 -2.0780 206° Southwest 518 596 33,000  Level FlightAware ADS-B
Tue 11:49:32 AM 42.0720 -2.1430 206° Southwest 516 594 33,000  Level FlightAware ADS-B
Tue 11:50:12 AM 41.9860 -2.1990 206° Southwest 516 594 33,000  Level FlightAware ADS-B
Tue 11:50:57 AM 41.8920 -2.2610 206° Southwest 516 594 33,000  Level FlightAware ADS-B
Tue 11:51:37 AM 41.8080 -2.3160 206° Southwest 515 593 33,000  Level FlightAware ADS-B
Tue 11:52:17 AM 41.7240 -2.3710 206° Southwest 515 593 33,000  Level FlightAware ADS-B
Tue 11:53:02 AM 41.6220 -2.4370 206° Southwest 515 593 33,000  Level FlightAware ADS-B
Tue 11:53:42 AM 41.5420 -2.4890 206° Southwest 514 592 33,000  Level FlightAware ADS-B
Tue 11:54:22 AM 41.4510 -2.5480 206° Southwest 514 592 33,000  Level FlightAware ADS-B
Tue 11:55:07 AM 41.3520 -2.5960 200° South 509 586 33,000  Level FlightAware ADS-B
Tue 11:55:47 AM 41.2640 -2.6160 190° South 506 582 33,000 71 Level FlightAware ADS-B
Tue 11:56:32 AM 41.1610 -2.6150 180° South 506 582 33,100 424 Climbing FlightAware ADS-B
Tue 11:57:12 AM 41.0600 -2.6060 176° South 511 588 33,600 776 Climbing FlightAware ADS-B
Tue 11:57:57 AM 40.9560 -2.5970 176° South 510 587 34,200 847 Climbing FlightAware ADS-B
Tue 11:58:37 AM 40.8640 -2.5890 176° South 508 585 34,800 900 Climbing FlightAware ADS-B
Tue 11:59:17 AM 40.7670 -2.5800 176° South 505 581 35,400 847 Climbing FlightAware ADS-B
Tue 12:00:02 PM 40.6630 -2.5710 176° South 501 577 36,000 776 Climbing FlightAware ADS-B
Tue 12:00:42 PM 40.5720 -2.5620 176° South 500 575 36,500 600 Climbing FlightAware ADS-B
Tue 12:01:22 PM 40.4780 -2.5550 177° South 504 580 36,800 353 Climbing FlightAware ADS-B
Tue 12:02:07 PM 40.3720 -2.5650 184° South 514 592 37,000 141 Climbing FlightAware ADS-B
Tue 12:02:47 PM 40.2780 -2.5940 193° South 519 597 37,000  Level FlightAware ADS-B
Tue 12:03:32 PM 40.1790 -2.6420 200° South 520 598 37,000  Level FlightAware ADS-B
Tue 12:04:12 PM 40.0890 -2.6870 201° Southwest 521 600 37,000  Level FlightAware ADS-B
Tue 12:04:52 PM 39.9990 -2.7310 201° Southwest 521 600 37,000  Level FlightAware ADS-B
Tue 12:05:37 PM 39.8940 -2.7840 201° Southwest 521 600 37,000  Level FlightAware ADS-B
Tue 12:06:17 PM 39.8040 -2.8280 201° Southwest 521 600 37,000  Level FlightAware ADS-B
Tue 12:07:02 PM 39.7060 -2.8770 201° Southwest 523 602 37,000  Level FlightAware ADS-B
Tue 12:07:42 PM 39.6170 -2.9210 201° Southwest 524 603 37,000  Level FlightAware ADS-B
Tue 12:08:22 PM 39.5250 -2.9660 201° Southwest 525 604 37,000  Level FlightAware ADS-B
Tue 12:09:07 PM 39.4310 -3.0120 201° Southwest 516 594 37,000  Level FlightAware ADS-B
Tue 12:09:52 PM 39.3270 -3.0630 201° Southwest 516 594 37,000  Level FlightAware ADS-B
Tue 12:10:32 PM 39.2360 -3.1070 201° Southwest 516 594 37,000  Level FlightAware ADS-B
Tue 12:11:12 PM 39.1420 -3.1530 201° Southwest 517 595 37,000  Level FlightAware ADS-B
Tue 12:11:57 PM 39.0420 -3.2010 200° South 518 596 37,000  Level FlightAware ADS-B
Tue 12:12:37 PM 38.9520 -3.2440 200° South 519 597 37,000  Level FlightAware ADS-B
Tue 12:13:17 PM 38.8580 -3.2900 201° Southwest 519 597 37,000  Level FlightAware ADS-B
Tue 12:14:02 PM 38.7570 -3.3380 200° South 517 595 37,000  Level FlightAware ADS-B
Tue 12:14:42 PM 38.6660 -3.3820 201° Southwest 517 595 37,000  Level FlightAware ADS-B
Tue 12:15:27 PM 38.5630 -3.4300 200° South 516 594 37,000  Level FlightAware ADS-B
Tue 12:16:07 PM 38.4790 -3.4710 201° Southwest 516 594 37,000  Level FlightAware ADS-B
Tue 12:16:47 PM 38.3790 -3.5180 200° South 523 602 37,000  Level FlightAware ADS-B
Tue 12:17:32 PM 38.2770 -3.5660 200° South 523 602 37,000  Level FlightAware ADS-B
Tue 12:18:02 PM 38.2090 -3.5990 201° Southwest 523 602 37,000  Level FlightAware ADS-B
Tue 12:19:07 PM 38.0650 -3.6750 203° Southwest 524 603 37,000  Level FlightAware ADS-B
Tue 12:19:52 PM 37.9670 -3.7300 204° Southwest 524 603 37,000  Level FlightAware ADS-B
Tue 12:20:32 PM 37.8730 -3.7830 204° Southwest 516 594 37,000  Level FlightAware ADS-B
Tue 12:21:12 PM 37.7830 -3.8330 204° Southwest 516 594 37,000  Level FlightAware ADS-B
Tue 12:21:57 PM 37.6850 -3.8890 204° Southwest 524 603 37,000  Level FlightAware ADS-B
Tue 12:22:37 PM 37.5970 -3.9380 204° Southwest 523 602 37,000  Level FlightAware ADS-B
Tue 12:23:22 PM 37.4960 -3.9940 204° Southwest 512 589 37,000  Level FlightAware ADS-B
Tue 12:24:02 PM 37.4090 -4.0420 204° Southwest 509 586 37,000  Level FlightAware ADS-B
Tue 12:24:47 PM 37.3090 -4.0970 204° Southwest 508 585 37,000  Level FlightAware ADS-B
Tue 12:27:00 PM 37.0370 -4.1505 189° South  Level Estimated
Tue 12:27:37 PM 36.9480 -4.2960 189° South 512 589 37,000  Level FlightAware ADS-B
Tue 12:28:32 PM 36.8260 -4.3650 204° Southwest 520 598 37,000  Level FlightAware ADS-B
Tue 12:30:57 PM 36.5300 -4.5950 188° South 517 595 37,000  Level FlightAware ADS-B
Tue 12:31:00 PM 36.5230 -4.4211 188° South  Level Estimated
Tue 12:33:00 PM 36.2779 -4.6390 188° South  Level Estimated
Tue 12:33:22 PM 36.2440 -4.8200 188° South 510 587 37,000  Level FlightAware ADS-B
Tue 12:35:00 PM 36.0429 -4.8530 188° South  Level Estimated
Tue 12:35:02 PM 36.0350 -4.9850 188° South 503 579 37,000  Level FlightAware ADS-B
Tue 12:35:42 PM 35.9560 -5.0470 212° Southwest 504 580 37,000  Level FlightAware ADS-B
Tue 12:36:27 PM 35.8660 -5.1180 213° Southwest 502 578 37,000  Level FlightAware ADS-B
Tue 12:37:07 PM 35.7900 -5.1840 215° Southwest 507 583 37,000  Level FlightAware ADS-B
Tue 12:37:47 PM 35.7140 -5.2530 216° Southwest 506 582 37,000  Level FlightAware ADS-B
Tue 12:38:32 PM 35.6300 -5.3290 216° Southwest 498 573 37,000  Level FlightAware ADS-B
Tue 12:39:12 PM 35.5530 -5.3970 216° Southwest 497 572 37,000  Level FlightAware ADS-B
Tue 12:39:52 PM 35.4780 -5.4630 216° Southwest 495 570 37,000  Level FlightAware ADS-B
Tue 12:40:37 PM 35.3930 -5.5380 216° Southwest 500 575 37,000  Level FlightAware ADS-B
Tue 12:41:17 PM 35.3180 -5.6040 216° Southwest 494 568 37,000  Level FlightAware ADS-B
Tue 12:42:02 PM 35.2340 -5.6780 216° Southwest 498 573 37,000  Level FlightAware ADS-B
Tue 12:42:42 PM 35.1590 -5.7430 215° Southwest 498 573 37,000  Level FlightAware ADS-B
Tue 12:43:22 PM 35.0840 -5.8090 216° Southwest 497 572 37,000  Level FlightAware ADS-B
Tue 12:44:07 PM 35.0000 -5.8820 215° Southwest 495 570 37,000  Level FlightAware ADS-B
Tue 12:44:47 PM 34.9250 -5.9470 215° Southwest 492 566 37,000  Level FlightAware ADS-B
Tue 12:45:32 PM 34.8420 -6.0190 215° Southwest 491 565 37,000  Level FlightAware ADS-B
Tue 12:46:12 PM 34.7680 -6.0830 215° Southwest 490 564 37,000  Level FlightAware ADS-B
Tue 12:46:57 PM 34.6860 -6.1530 215° Southwest 482 555 37,000  Level FlightAware ADS-B
Tue 12:47:37 PM 34.6110 -6.2180 216° Southwest 490 564 37,000  Level FlightAware ADS-B
Tue 12:48:17 PM 34.5370 -6.2810 215° Southwest 491 565 37,000  Level FlightAware ADS-B
Tue 12:49:02 PM 34.4530 -6.3530 215° Southwest 491 565 37,000  Level FlightAware ADS-B
Tue 12:49:42 PM 34.3810 -6.4150 215° Southwest 492 566 37,000  Level FlightAware ADS-B
Tue 12:50:22 PM 34.3060 -6.4790 215° Southwest 491 565 37,000  Level FlightAware ADS-B
Tue 12:51:07 PM 34.2280 -6.5450 215° Southwest 491 565 37,000  Level FlightAware ADS-B
Tue 12:52:02 PM 34.1200 -6.6370 215° Southwest 491 565 37,000  Level FlightAware ADS-B
Tue 12:52:42 PM 34.0550 -6.6920 215° Southwest 492 566 37,000  Level FlightAware ADS-B
Tue 12:53:22 PM 33.9910 -6.7460 215° Southwest 492 566 37,000  Level FlightAware ADS-B
Tue 12:54:07 PM 33.8870 -6.8330 215° Southwest 37,000  Level FlightAware ADS-B
Tue 12:56:00 PM 33.6617 -6.8471 183° South  Level Estimated
Tue 12:57:00 PM 33.5420 -6.8546 183° South  Level Estimated
Tue 12:58:00 PM 33.4223 -6.8621 183° South  Level Estimated
Tue 12:59:00 PM 33.3027 -6.8695 183° South  Level Estimated
Tue 01:00:00 PM 33.1830 -6.8769 183° South  Level Estimated
Tue 01:01:00 PM 33.0634 -6.8843 183° South  Level Estimated
Tue 01:02:00 PM 32.9437 -6.8917 183° South  Level Estimated
Tue 01:03:00 PM 32.8240 -6.8991 183° South  Level Estimated
Tue 01:04:00 PM 32.7044 -6.9064 183° South  Level Estimated
Tue 01:05:00 PM 32.5847 -6.9138 183° South  Level Estimated
Tue 01:06:00 PM 32.4650 -6.9211 183° South  Level Estimated
Tue 01:07:00 PM 32.3454 -6.9283 183° South  Level Estimated
Tue 01:08:00 PM 32.2257 -6.9356 183° South  Level Estimated
Tue 01:09:00 PM 32.1061 -6.9429 183° South  Level Estimated
Tue 01:10:00 PM 31.9864 -6.9501 183° South  Level Estimated
Tue 01:11:00 PM 31.8668 -6.9573 183° South  Level Estimated
Tue 01:12:00 PM 31.7471 -6.9645 183° South  Level Estimated
Tue 01:13:00 PM 31.6274 -6.9717 183° South  Level Estimated
Tue 01:14:00 PM 31.5078 -6.9788 183° South  Level Estimated
Tue 01:15:00 PM 31.3881 -6.9859 183° South  Level Estimated
Tue 01:16:00 PM 31.2684 -6.9931 183° South  Level Estimated
Tue 01:17:00 PM 31.1488 -7.0002 183° South  Level Estimated
Tue 01:18:00 PM 31.0291 -7.0072 183° South  Level Estimated
Tue 01:19:00 PM 30.9095 -7.0143 183° South  Level Estimated
Tue 01:20:00 PM 30.7898 -7.0213 183° South  Level Estimated
Tue 01:21:00 PM 30.6701 -7.0284 183° South  Level Estimated
Tue 01:22:00 PM 30.5504 -7.0354 183° South  Level Estimated
Tue 01:23:00 PM 30.4308 -7.0424 183° South  Level Estimated
Tue 01:24:00 PM 30.3111 -7.0493 183° South  Level Estimated
Tue 01:25:00 PM 30.1914 -7.0563 183° South  Level Estimated
Tue 01:26:00 PM 30.0718 -7.0633 183° South  Level Estimated
Tue 01:27:00 PM 29.9521 -7.0702 183° South  Level Estimated
Tue 01:28:00 PM 29.8324 -7.0771 183° South  Level Estimated
Tue 01:29:00 PM 29.7127 -7.0840 183° South  Level Estimated
Tue 01:30:00 PM 29.5931 -7.0909 183° South  Level Estimated
Tue 01:31:00 PM 29.4734 -7.0977 183° South  Level Estimated
Tue 01:32:00 PM 29.3537 -7.1046 183° South  Level Estimated
Tue 01:33:00 PM 29.2341 -7.1114 183° South  Level Estimated
Tue 01:34:00 PM 29.1144 -7.1182 183° South  Level Estimated
Tue 01:35:00 PM 28.9947 -7.1250 183° South  Level Estimated
Tue 01:36:00 PM 28.8751 -7.1318 183° South  Level Estimated
Tue 01:37:00 PM 28.7554 -7.1385 183° South  Level Estimated
Tue 01:38:00 PM 28.6318 -7.1455 183° South  Level Estimated
Tue 01:39:00 PM 28.5082 -7.1525 183° South  Level Estimated
Tue 01:40:00 PM 28.3845 -7.1594 183° South  Level Estimated
Tue 01:41:00 PM 28.2609 -7.1663 183° South  Level Estimated
Tue 01:42:00 PM 28.1373 -7.1732 183° South  Level Estimated
Tue 01:43:00 PM 28.0137 -7.1801 183° South  Level Estimated
Tue 01:44:00 PM 27.8901 -7.1870 183° South  Level Estimated
Tue 01:45:00 PM 27.7664 -7.1939 183° South  Level Estimated
Tue 01:46:00 PM 27.6428 -7.2007 183° South  Level Estimated
Tue 01:47:00 PM 27.5192 -7.2075 183° South  Level Estimated
Tue 01:48:00 PM 27.3956 -7.2143 183° South  Level Estimated
Tue 01:49:00 PM 27.2719 -7.2211 183° South  Level Estimated
Tue 01:50:00 PM 27.1483 -7.2279 183° South  Level Estimated
Tue 01:51:00 PM 27.0247 -7.2347 183° South  Level Estimated
Tue 01:52:00 PM 26.9010 -7.2414 183° South  Level Estimated
Tue 01:53:00 PM 26.7774 -7.2482 183° South  Level Estimated
Tue 01:54:00 PM 26.6538 -7.2549 183° South  Level Estimated
Tue 01:55:00 PM 26.5301 -7.2616 183° South  Level Estimated
Tue 01:56:00 PM 26.4065 -7.2683 183° South  Level Estimated
Tue 01:57:00 PM 26.2829 -7.2750 183° South  Level Estimated
Tue 01:58:00 PM 26.1593 -7.2816 183° South  Level Estimated
Tue 01:59:00 PM 26.0356 -7.2883 183° South  Level Estimated
Tue 02:00:00 PM 25.9120 -7.2949 183° South  Level Estimated
Tue 02:01:00 PM 25.7884 -7.3015 183° South  Level Estimated
Tue 02:02:00 PM 25.6647 -7.3081 183° South  Level Estimated
Tue 02:03:00 PM 25.5411 -7.3148 183° South  Level Estimated
Tue 02:04:00 PM 25.4175 -7.3213 183° South  Level Estimated
Tue 02:05:00 PM 25.2938 -7.3279 183° South  Level Estimated
Tue 02:06:00 PM 25.1702 -7.3345 183° South  Level Estimated
Tue 02:07:00 PM 25.0466 -7.3410 183° South  Level Estimated
Tue 02:08:00 PM 24.9230 -7.3475 183° South  Level Estimated
Tue 02:09:00 PM 24.7993 -7.3541 183° South  Level Estimated
Tue 02:10:00 PM 24.6757 -7.3605 183° South  Level Estimated
Tue 02:11:00 PM 24.5521 -7.3670 183° South  Level Estimated
Tue 02:12:00 PM 24.4284 -7.3735 183° South  Level Estimated
Tue 02:13:00 PM 24.3048 -7.3800 183° South  Level Estimated
Tue 02:14:00 PM 24.1812 -7.3864 183° South  Level Estimated
Tue 02:15:00 PM 24.0576 -7.3929 183° South  Level Estimated
Tue 02:16:00 PM 23.9339 -7.3993 183° South  Level Estimated
Tue 02:17:00 PM 23.8103 -7.4057 183° South  Level Estimated
Tue 02:18:00 PM 23.6867 -7.4121 183° South  Level Estimated
Tue 02:19:00 PM 23.5630 -7.4185 183° South  Level Estimated
Tue 02:20:00 PM 23.4394 -7.4249 183° South  Level Estimated
Tue 02:21:00 PM 23.3158 -7.4313 183° South  Level Estimated
Tue 02:22:00 PM 23.1921 -7.4376 183° South  Level Estimated
Tue 02:23:00 PM 23.0685 -7.4439 183° South  Level Estimated
Tue 02:24:00 PM 22.9449 -7.4503 183° South  Level Estimated
Tue 02:25:00 PM 22.8212 -7.4566 183° South  Level Estimated
Tue 02:26:00 PM 22.6976 -7.4629 183° South  Level Estimated
Tue 02:27:00 PM 22.5739 -7.4692 183° South  Level Estimated
Tue 02:28:00 PM 22.4503 -7.4755 183° South  Level Estimated
Tue 02:29:00 PM 22.3267 -7.4818 183° South  Level Estimated
Tue 02:30:00 PM 22.2030 -7.4880 183° South  Level Estimated
Tue 02:31:00 PM 22.0794 -7.4943 183° South  Level Estimated
Tue 02:32:00 PM 21.9557 -7.5005 183° South  Level Estimated
Tue 02:33:00 PM 21.8321 -7.5067 183° South  Level Estimated
Tue 02:34:00 PM 21.7085 -7.5130 183° South  Level Estimated
Tue 02:35:00 PM 21.5848 -7.5192 183° South  Level Estimated
Tue 02:36:00 PM 21.4612 -7.5254 183° South  Level Estimated
Tue 02:37:00 PM 21.3375 -7.5316 183° South  Level Estimated
Tue 02:38:00 PM 21.2139 -7.5377 183° South  Level Estimated
Tue 02:39:00 PM 21.0903 -7.5439 183° South  Level Estimated
Tue 02:40:00 PM 20.9666 -7.5501 183° South  Level Estimated
Tue 02:41:00 PM 20.8430 -7.5562 183° South  Level Estimated
Tue 02:42:00 PM 20.7193 -7.5624 183° South  Level Estimated
Tue 02:43:00 PM 20.5957 -7.5685 183° South  Level Estimated
Tue 02:44:00 PM 20.4720 -7.5746 183° South  Level Estimated
Tue 02:45:00 PM 20.3484 -7.5807 183° South  Level Estimated
Tue 02:46:00 PM 20.2248 -7.5868 183° South  Level Estimated
Tue 02:47:00 PM 20.1011 -7.5929 183° South  Level Estimated
Tue 02:48:00 PM 19.9775 -7.5990 183° South  Level Estimated
Tue 02:49:00 PM 19.8538 -7.6051 183° South  Level Estimated
Tue 02:50:00 PM 19.7302 -7.6111 183° South  Level Estimated
Tue 02:51:00 PM 19.6066 -7.6172 183° South  Level Estimated
Tue 02:52:00 PM 19.4829 -7.6232 183° South  Level Estimated
Tue 02:53:00 PM 19.3593 -7.6292 183° South  Level Estimated
Tue 02:54:00 PM 19.2356 -7.6353 183° South  Level Estimated
Tue 02:55:00 PM 19.1120 -7.6413 183° South  Level Estimated
Tue 02:56:00 PM 18.9884 -7.6473 183° South  Level Estimated
Tue 02:57:00 PM 18.8647 -7.6533 183° South  Level Estimated
Tue 02:58:00 PM 18.7411 -7.6592 183° South  Level Estimated
Tue 02:59:00 PM 18.6175 -7.6652 183° South  Level Estimated
Tue 03:00:00 PM 18.4938 -7.6712 183° South  Level Estimated
Tue 03:01:00 PM 18.3702 -7.6771 183° South  Level Estimated
Tue 03:02:00 PM 18.2465 -7.6831 183° South  Level Estimated
Tue 03:03:00 PM 18.1229 -7.6890 183° South  Level Estimated
Tue 03:04:00 PM 17.9993 -7.6950 183° South  Level Estimated
Tue 03:05:00 PM 17.8756 -7.7009 183° South  Level Estimated
Tue 03:06:00 PM 17.7520 -7.7068 183° South  Level Estimated
Tue 03:07:00 PM 17.6275 -7.7128 183° South  Level Estimated
Tue 03:08:00 PM 17.5030 -7.7187 183° South  Level Estimated
Tue 03:09:00 PM 17.3786 -7.7246 183° South  Level Estimated
Tue 03:10:00 PM 17.2541 -7.7306 183° South  Level Estimated
Tue 03:11:00 PM 17.1296 -7.7365 183° South  Level Estimated
Tue 03:12:00 PM 17.0051 -7.7424 183° South  Level Estimated
Tue 03:13:00 PM 16.8807 -7.7483 183° South  Level Estimated
Tue 03:14:00 PM 16.7562 -7.7542 183° South  Level Estimated
Tue 03:15:00 PM 16.6317 -7.7601 183° South  Level Estimated
Tue 03:16:00 PM 16.5073 -7.7659 183° South  Level Estimated
Tue 03:17:00 PM 16.3828 -7.7718 183° South  Level Estimated
Tue 03:18:00 PM 16.2583 -7.7777 183° South  Level Estimated
Tue 03:19:00 PM 16.1339 -7.7835 183° South  Level Estimated
Tue 03:20:00 PM 16.0094 -7.7894 183° South  Level Estimated
Tue 03:21:00 PM 15.8849 -7.7952 183° South  Level Estimated
Tue 03:22:00 PM 15.7605 -7.8010 183° South  Level Estimated
Tue 03:23:00 PM 15.6360 -7.8069 183° South  Level Estimated
Tue 03:24:00 PM 15.5115 -7.8127 183° South  Level Estimated
Tue 03:25:00 PM 15.3870 -7.8185 183° South  Level Estimated
Tue 03:26:00 PM 15.2626 -7.8243 183° South  Level Estimated
Tue 03:27:00 PM 15.1381 -7.8301 183° South  Level Estimated
Tue 03:28:00 PM 15.0136 -7.8359 183° South  Level Estimated
Tue 03:29:00 PM 14.8892 -7.8417 183° South  Level Estimated
Tue 03:30:00 PM 14.7647 -7.8474 183° South  Level Estimated
Tue 03:31:00 PM 14.6402 -7.8532 183° South  Level Estimated
Tue 03:32:00 PM 14.5157 -7.8590 183° South  Level Estimated
Tue 03:33:00 PM 14.3913 -7.8647 183° South  Level Estimated
Tue 03:34:00 PM 14.2668 -7.8705 183° South  Level Estimated
Tue 03:35:00 PM 14.1423 -7.8762 183° South  Level Estimated
Tue 03:36:00 PM 14.0179 -7.8820 183° South  Level Estimated
Tue 03:37:00 PM 13.8930 -7.8877 183° South  Level Estimated
Tue 03:38:00 PM 13.7681 -7.8935 183° South  Level Estimated
Tue 03:39:00 PM 13.6432 -7.8992 183° South  Level Estimated
Tue 03:40:00 PM 13.5183 -7.9049 183° South  Level Estimated
Tue 03:41:00 PM 13.3934 -7.9107 183° South  Level Estimated
Tue 03:42:00 PM 13.2685 -7.9164 183° South  Level Estimated
Tue 03:43:00 PM 13.1436 -7.9221 183° South  Level Estimated
Tue 03:44:00 PM 13.0188 -7.9278 183° South  Level Estimated
Tue 03:45:00 PM 12.8939 -7.9335 183° South  Level Estimated
Tue 03:46:00 PM 12.7690 -7.9392 183° South  Level Estimated
Tue 03:47:00 PM 12.6441 -7.9449 183° South  Level Estimated
Tue 03:48:00 PM 12.5335 -7.9499 183° South  Level Estimated
Tue 03:49:00 PM 12.5335 -7.9499 316° Northwest  Level Estimated
Tue 03:50:00 PM 12.5335 -7.9499 316° Northwest  Level Estimated

Login

Don't have an account? Register now (free) for customized features, flight alerts, and more!